Time,TemperatureF,DewpointF,PressureIn,WindDirection,WindDirectionDegrees,WindSpeedMPH,WindSpeedGustMPH,Humidity,HourlyPrecipIn,Conditions,Clouds,dailyrainin,SoftwareType,DateUTC
2013-11-30 00:12:00,20.0,12.0,30.77,WNW,303,0.0,1.0,70,0.00,,,0.00,,2013-11-30 05:12:00,
2013-11-30 00:22:00,20.0,12.0,30.77,NW,308,0.0,1.0,71,0.00,,,0.00,,2013-11-30 05:22:00,
2013-11-30 00:43:00,20.0,12.0,30.77,WNW,301,0.0,1.0,71,0.00,,,0.00,,2013-11-30 05:43:00,
2013-11-30 00:53:00,19.0,11.0,30.77,WNW,301,0.0,0.0,72,0.00,,,0.00,,2013-11-30 05:53:00,
2013-11-30 01:12:00,19.0,12.0,30.77,NW,313,0.0,1.0,73,0.00,,,0.00,,2013-11-30 06:12:00,
2013-11-30 01:22:00,19.0,12.0,30.77,NW,317,0.0,1.0,73,0.00,,,0.00,,2013-11-30 06:22:00,
2013-11-30 01:42:00,19.0,12.0,30.77,NW,321,0.0,1.0,73,0.00,,,0.00,,2013-11-30 06:42:00,
2013-11-30 01:52:00,19.0,12.0,30.78,WNW,303,0.0,2.0,73,0.00,,,0.00,,2013-11-30 06:52:00,
2013-11-30 02:12:00,19.0,12.0,30.78,NW,308,0.0,4.0,73,0.00,,,0.00,,2013-11-30 07:12:00,
2013-11-30 02:22:00,18.0,11.0,30.78,WNW,297,0.0,1.0,75,0.00,,,0.00,,2013-11-30 07:22:00,
2013-11-30 02:42:00,17.0,11.0,30.79,NW,306,0.0,1.0,77,0.00,,,0.00,,2013-11-30 07:42:00,
2013-11-30 02:52:00,17.0,11.0,30.79,NW,306,0.0,1.0,78,0.00,,,0.00,,2013-11-30 07:52:00,
2013-11-30 03:11:00,16.0,11.0,30.79,NW,305,0.0,1.0,79,0.00,,,0.00,,2013-11-30 08:11:00,
2013-11-30 03:22:00,16.0,11.0,30.79,NW,312,0.0,1.0,80,0.00,,,0.00,,2013-11-30 08:22:00,
2013-11-30 03:42:00,15.0,10.0,30.79,NW,317,0.0,1.0,81,0.00,,,0.00,,2013-11-30 08:42:00,
2013-11-30 03:52:00,15.0,11.0,30.79,WNW,293,0.0,1.0,82,0.00,,,0.00,,2013-11-30 08:52:00,
2013-11-30 04:11:00,14.0,10.0,30.79,NW,306,0.0,1.0,83,0.00,,,0.00,,2013-11-30 09:11:00,
2013-11-30 04:22:00,14.0,10.0,30.79,NW,310,0.0,2.0,84,0.00,,,0.00,,2013-11-30 09:22:00,
2013-11-30 04:43:00,14.0,10.0,30.79,NW,306,0.0,2.0,84,0.00,,,0.00,,2013-11-30 09:43:00,
2013-11-30 04:54:00,13.0,9.0,30.79,NW,314,0.0,1.0,84,0.00,,,0.00,,2013-11-30 09:54:00,
2013-11-30 05:13:00,13.0,9.0,30.80,WNW,300,0.0,1.0,85,0.00,,,0.00,,2013-11-30 10:13:00,
2013-11-30 05:23:00,13.0,10.0,30.80,NW,319,0.0,2.0,86,0.00,,,0.00,,2013-11-30 10:23:00,
2013-11-30 05:42:00,12.0,9.0,30.79,WNW,298,0.0,1.0,86,0.00,,,0.00,,2013-11-30 10:42:00,
2013-11-30 05:53:00,12.0,9.0,30.79,NW,320,0.0,1.0,86,0.00,,,0.00,,2013-11-30 10:53:00,
2013-11-30 06:12:00,12.0,9.0,30.79,NW,308,0.0,1.0,86,0.00,,,0.00,,2013-11-30 11:12:00,
2013-11-30 06:22:00,12.0,9.0,30.79,NW,320,0.0,1.0,87,0.00,,,0.00,,2013-11-30 11:22:00,
2013-11-30 06:42:00,12.0,9.0,30.79,WNW,301,0.0,1.0,87,0.00,,,0.00,,2013-11-30 11:42:00,
2013-11-30 06:53:00,11.0,8.0,30.80,NW,313,0.0,1.0,87,0.00,,,0.00,,2013-11-30 11:53:00,
2013-11-30 07:11:00,12.0,9.0,30.80,NW,313,0.0,1.0,87,0.00,,,0.00,,2013-11-30 12:11:00,
2013-11-30 07:22:00,11.0,8.0,30.79,NW,308,0.0,1.0,87,0.00,,,0.00,,2013-11-30 12:22:00,
2013-11-30 07:42:00,11.0,8.0,30.79,NW,306,0.0,1.0,87,0.00,,,0.00,,2013-11-30 12:42:00,
2013-11-30 07:52:00,11.0,8.0,30.80,NW,308,0.0,1.0,87,0.00,,,0.00,,2013-11-30 12:52:00,
2013-11-30 08:11:00,11.0,8.0,30.80,WNW,298,0.0,1.0,87,0.00,,,0.00,,2013-11-30 13:11:00,
2013-11-30 08:22:00,12.0,9.0,30.80,NW,310,0.0,1.0,87,0.00,,,0.00,,2013-11-30 13:22:00,
2013-11-30 08:42:00,13.0,10.0,30.81,NW,313,0.0,1.0,87,0.00,,,0.00,,2013-11-30 13:42:00,
2013-11-30 08:52:00,13.0,10.0,30.80,NW,313,0.0,1.0,87,0.00,,,0.00,,2013-11-30 13:52:00,
2013-11-30 09:12:00,14.0,11.0,30.79,WNW,293,0.0,1.0,86,0.00,,,0.00,,2013-11-30 14:12:00,
2013-11-30 09:22:00,15.0,11.0,30.79,WNW,295,0.0,1.0,85,0.00,,,0.00,,2013-11-30 14:22:00,
2013-11-30 09:42:00,16.0,12.0,30.79,WNW,295,0.0,1.0,83,0.00,,,0.00,,2013-11-30 14:42:00,
2013-11-30 09:53:00,18.0,13.0,30.78,WNW,299,0.0,2.0,81,0.00,,,0.00,,2013-11-30 14:53:00,
2013-11-30 10:11:00,18.0,13.0,30.77,NW,315,0.0,2.0,79,0.00,,,0.00,,2013-11-30 15:11:00,
2013-11-30 10:22:00,20.0,14.0,30.77,NW,310,0.0,1.0,77,0.00,,,0.00,,2013-11-30 15:22:00,
2013-11-30 10:43:00,21.0,15.0,30.76,West,281,0.0,3.0,78,0.00,,,0.00,,2013-11-30 15:43:00,
2013-11-30 10:54:00,21.0,15.0,30.75,WSW,258,0.0,2.0,77,0.00,,,0.00,,2013-11-30 15:54:00,
2013-11-30 11:13:00,23.0,16.0,30.74,WNW,293,0.0,1.0,73,0.00,,,0.00,,2013-11-30 16:13:00,
2013-11-30 11:23:00,24.0,15.0,30.73,West,270,0.0,2.0,68,0.00,,,0.00,,2013-11-30 16:23:00,
2013-11-30 11:43:00,24.0,15.0,30.72,NW,305,0.0,2.0,67,0.00,,,0.00,,2013-11-30 16:43:00,
2013-11-30 11:53:00,26.0,16.0,30.71,NW,307,0.0,2.0,65,0.00,,,0.00,,2013-11-30 16:53:00,
2013-11-30 12:11:00,27.0,16.0,30.69,NW,313,0.0,2.0,62,0.00,,,0.00,,2013-11-30 17:11:00,
2013-11-30 12:22:00,28.0,15.0,30.68,WSW,239,1.0,4.0,57,0.00,,,0.00,,2013-11-30 17:22:00,
2013-11-30 12:42:00,28.0,14.0,30.67,SW,233,1.0,6.0,55,0.00,,,0.00,,2013-11-30 17:42:00,
2013-11-30 12:53:00,29.0,12.0,30.66,WSW,256,4.0,8.0,49,0.00,,,0.00,,2013-11-30 17:53:00,
2013-11-30 13:12:00,30.0,11.0,30.64,West,270,2.0,8.0,44,0.00,,,0.00,,2013-11-30 18:12:00,
2013-11-30 13:22:00,30.0,11.0,30.63,WSW,258,4.0,9.0,45,0.00,,,0.00,,2013-11-30 18:22:00,
2013-11-30 13:42:00,30.0,11.0,30.62,SSW,203,7.0,10.0,45,0.00,,,0.00,,2013-11-30 18:42:00,
2013-11-30 13:52:00,31.0,10.0,30.61,SSW,197,6.0,9.0,41,0.00,,,0.00,,2013-11-30 18:52:00,
2013-11-30 14:11:00,31.0,12.0,30.61,West,274,2.0,9.0,44,0.00,,,0.00,,2013-11-30 19:11:00,
2013-11-30 14:21:00,31.0,12.0,30.60,SSW,213,6.0,13.0,44,0.00,,,0.00,,2013-11-30 19:21:00,
2013-11-30 14:42:00,31.0,12.0,30.59,WSW,238,1.0,7.0,45,0.00,,,0.00,,2013-11-30 19:42:00,
2013-11-30 14:52:00,31.0,11.0,30.59,SW,215,6.0,10.0,43,0.00,,,0.00,,2013-11-30 19:52:00,
2013-11-30 15:11:00,31.0,11.0,30.57,WSW,253,4.0,8.0,43,0.00,,,0.00,,2013-11-30 20:11:00,
2013-11-30 15:22:00,31.0,11.0,30.57,SW,227,3.0,8.0,42,0.00,,,0.00,,2013-11-30 20:22:00,
2013-11-30 15:42:00,31.0,11.0,30.56,SSW,205,2.0,11.0,42,0.00,,,0.00,,2013-11-30 20:42:00,
2013-11-30 15:52:00,31.0,11.0,30.56,SW,226,2.0,9.0,43,0.00,,,0.00,,2013-11-30 20:52:00,
2013-11-30 16:11:00,31.0,11.0,30.55,SSW,207,3.0,9.0,43,0.00,,,0.00,,2013-11-30 21:11:00,
2013-11-30 16:22:00,31.0,13.0,30.55,WSW,256,2.0,5.0,46,0.00,,,0.00,,2013-11-30 21:22:00,
2013-11-30 16:43:00,31.0,15.0,30.55,SW,219,1.0,4.0,50,0.00,,,0.00,,2013-11-30 21:43:00,
2013-11-30 16:53:00,31.0,12.0,30.54,WSW,244,1.0,5.0,45,0.00,,,0.00,,2013-11-30 21:53:00,
2013-11-30 17:12:00,31.0,12.0,30.53,West,280,1.0,6.0,45,0.00,,,0.00,,2013-11-30 22:12:00,
2013-11-30 17:23:00,31.0,12.0,30.53,West,261,1.0,5.0,44,0.00,,,0.00,,2013-11-30 22:23:00,
2013-11-30 17:42:00,31.0,12.0,30.53,WSW,243,3.0,7.0,44,0.00,,,0.00,,2013-11-30 22:42:00,
2013-11-30 17:52:00,31.0,12.0,30.52,SSE,147,1.0,4.0,44,0.00,,,0.00,,2013-11-30 22:52:00,
2013-11-30 18:12:00,31.0,11.0,30.52,WSW,243,1.0,5.0,43,0.00,,,0.00,,2013-11-30 23:12:00,
2013-11-30 18:22:00,31.0,12.0,30.51,West,276,1.0,5.0,44,0.00,,,0.00,,2013-11-30 23:22:00,
2013-11-30 18:42:00,31.0,12.0,30.51,SSE,166,1.0,6.0,44,0.00,,,0.00,,2013-11-30 23:42:00,
2013-11-30 18:53:00,31.0,12.0,30.50,SSE,168,2.0,4.0,44,0.00,,,0.00,,2013-11-30 23:53:00,
2013-11-30 19:11:00,31.0,12.0,30.48,West,281,2.0,5.0,45,0.00,,,0.00,,2013-12-01 00:11:00,
2013-11-30 19:22:00,31.0,12.0,30.48,West,272,1.0,4.0,45,0.00,,,0.00,,2013-12-01 00:22:00,
2013-11-30 19:42:00,30.0,11.0,30.47,West,269,1.0,4.0,45,0.00,,,0.00,,2013-12-01 00:42:00,
2013-11-30 19:52:00,30.0,12.0,30.47,West,270,2.0,4.0,46,0.00,,,0.00,,2013-12-01 00:52:00,
2013-11-30 20:12:00,30.0,12.0,30.46,WSW,240,2.0,7.0,47,0.00,,,0.00,,2013-12-01 01:12:00,
2013-11-30 20:21:00,30.0,13.0,30.45,West,265,2.0,5.0,48,0.00,,,0.00,,2013-12-01 01:21:00,
2013-11-30 20:42:00,31.0,15.0,30.45,South,171,3.0,8.0,50,0.00,,,0.00,,2013-12-01 01:42:00,
2013-11-30 20:52:00,31.0,15.0,30.44,SSW,202,4.0,6.0,51,0.00,,,0.00,,2013-12-01 01:52:00,
2013-11-30 21:11:00,31.0,15.0,30.44,WSW,240,3.0,5.0,51,0.00,,,0.00,,2013-12-01 02:11:00,
2013-11-30 21:22:00,31.0,15.0,30.44,SSE,156,3.0,7.0,52,0.00,,,0.00,,2013-12-01 02:22:00,
2013-11-30 21:42:00,31.0,16.0,30.43,WSW,256,3.0,7.0,54,0.00,,,0.00,,2013-12-01 02:42:00,
2013-11-30 21:52:00,31.0,17.0,30.42,SW,220,4.0,11.0,55,0.00,,,0.00,,2013-12-01 02:52:00,
2013-11-30 22:11:00,31.0,16.0,30.42,WSW,256,1.0,6.0,54,0.00,,,0.00,,2013-12-01 03:11:00,
2013-11-30 22:22:00,30.0,16.0,30.41,West,267,1.0,6.0,55,0.00,,,0.00,,2013-12-01 03:22:00,
2013-11-30 22:44:00,30.0,17.0,30.40,West,274,3.0,7.0,57,0.00,,,0.00,,2013-12-01 03:44:00,
2013-11-30 22:54:00,31.0,18.0,30.39,West,277,3.0,11.0,59,0.00,,,0.00,,2013-12-01 03:54:00,
2013-11-30 23:03:00,-999.0,-99.9,30.40,WSW,258,5.0,10.0,-999,0.00,,,0.00,,2013-12-01 04:03:00,
2013-11-30 23:13:00,31.0,19.0,30.40,WSW,258,5.0,10.0,61,0.00,,,0.00,,2013-12-01 04:13:00,
2013-11-30 23:23:00,31.0,20.0,30.38,SW,218,3.0,8.0,62,0.00,,,0.00,,2013-12-01 04:23:00,
2013-11-30 23:42:00,31.0,20.0,30.38,SW,232,3.0,10.0,64,0.00,,,0.00,,2013-12-01 04:42:00,
2013-11-30 23:53:00,31.0,20.0,30.37,SW,230,3.0,8.0,64,0.00,,,0.00,,2013-12-01 04:53:00,